createdAt,value
2022-07-26T00:00:37.845Z,20.40
2022-07-26T00:03:23.331Z,20.40
2022-07-26T00:06:09.263Z,20.60
2022-07-26T00:08:54.793Z,20.60
2022-07-26T00:11:40.584Z,20.50
2022-07-26T00:14:25.965Z,20.50
2022-07-26T00:17:11.508Z,20.60
2022-07-26T00:19:56.819Z,20.60
2022-07-26T00:22:42.605Z,20.40
2022-07-26T00:25:28.975Z,20.60
2022-07-26T00:28:14.708Z,20.60
2022-07-26T00:31:00.701Z,20.50
2022-07-26T00:33:46.750Z,20.50
2022-07-26T00:36:32.355Z,20.50
2022-07-26T00:39:21.498Z,20.40
2022-07-26T00:42:07.074Z,20.30
2022-07-26T00:44:52.651Z,20.30
2022-07-26T00:47:38.333Z,20.10
2022-07-26T00:50:23.928Z,20.10
2022-07-26T00:53:09.264Z,20.00
2022-07-26T00:55:55.022Z,20.00
2022-07-26T00:58:41.325Z,20.20
2022-07-26T01:01:30.404Z,20.00
2022-07-26T01:04:16.408Z,20.10
2022-07-26T01:07:03.382Z,20.20
2022-07-26T01:10:03.212Z,20.20
2022-07-26T01:12:48.817Z,19.90
2022-07-26T01:15:34.142Z,19.90
2022-07-26T01:18:19.927Z,19.90
2022-07-26T01:21:13.739Z,20.10
2022-07-26T01:23:59.920Z,19.90
2022-07-26T01:26:45.729Z,20.10
2022-07-26T01:29:35.910Z,19.90
2022-07-26T01:32:22.109Z,19.90
2022-07-26T01:35:07.917Z,20.00
2022-07-26T01:37:53.638Z,20.10
2022-07-26T01:40:38.922Z,20.10
2022-07-26T01:43:24.465Z,19.90
2022-07-26T01:46:10.481Z,20.20
2022-07-26T01:48:56.360Z,20.10
2022-07-26T01:51:42.254Z,20.20
2022-07-26T01:54:28.044Z,20.00
2022-07-26T01:57:13.493Z,19.90
2022-07-26T01:59:58.967Z,20.00
2022-07-26T02:02:44.521Z,20.20
2022-07-26T02:05:31.805Z,20.10
2022-07-26T02:08:17.431Z,19.90
2022-07-26T02:11:05.414Z,20.00
2022-07-26T02:13:53.185Z,20.20
2022-07-26T02:16:39.177Z,19.90
2022-07-26T02:19:24.763Z,19.90
2022-07-26T02:22:11.080Z,20.20
2022-07-26T02:24:59.500Z,20.20
2022-07-26T02:27:47.241Z,19.90
2022-07-26T02:30:33.785Z,20.10
2022-07-26T02:33:19.974Z,20.00
2022-07-26T02:36:05.666Z,20.10
2022-07-26T02:38:54.490Z,20.20
2022-07-26T02:41:40.462Z,20.00
2022-07-26T02:44:26.812Z,19.90
2022-07-26T02:47:12.782Z,20.20
2022-07-26T02:49:58.818Z,20.10
2022-07-26T02:52:44.497Z,20.00
2022-07-26T02:55:31.076Z,20.00
2022-07-26T02:58:16.650Z,20.10
2022-07-26T03:01:02.418Z,19.80
2022-07-26T03:03:50.779Z,20.00
2022-07-26T03:06:36.982Z,20.10
2022-07-26T03:09:22.183Z,19.80
2022-07-26T03:12:08.154Z,19.90
2022-07-26T03:14:53.800Z,20.00
2022-07-26T03:17:39.311Z,19.80
2022-07-26T03:20:25.005Z,19.70
2022-07-26T03:23:10.693Z,19.80
2022-07-26T03:26:02.031Z,19.70
2022-07-26T03:28:47.770Z,19.30
2022-07-26T03:31:33.176Z,19.50
2022-07-26T03:34:19.068Z,19.30
2022-07-26T03:37:04.819Z,19.40
2022-07-26T03:39:50.917Z,19.10
2022-07-26T03:42:36.881Z,19.40
2022-07-26T03:45:22.350Z,19.10
2022-07-26T03:48:07.983Z,19.30
2022-07-26T03:50:53.385Z,19.20
2022-07-26T03:53:38.631Z,19.30
2022-07-26T03:56:31.929Z,19.30
2022-07-26T03:59:18.810Z,19.10
2022-07-26T04:02:04.590Z,18.90
2022-07-26T04:04:50.314Z,19.10
2022-07-26T04:07:42.633Z,19.10
2022-07-26T04:10:28.166Z,19.10
2022-07-26T04:13:13.538Z,19.20
2022-07-26T04:15:59.146Z,18.90
2022-07-26T04:18:44.682Z,19.10
2022-07-26T04:21:30.360Z,19.20
2022-07-26T04:24:15.927Z,19.20
2022-07-26T04:27:01.581Z,19.20
2022-07-26T04:29:46.883Z,19.00
2022-07-26T04:32:32.610Z,19.00
2022-07-26T04:35:18.689Z,19.10
2022-07-26T04:38:04.822Z,19.00
2022-07-26T04:40:51.742Z,19.00
2022-07-26T04:43:37.597Z,19.30
2022-07-26T04:46:25.135Z,19.20
2022-07-26T04:49:11.352Z,19.20
2022-07-26T04:51:59.399Z,19.10
2022-07-26T04:54:45.724Z,19.20
2022-07-26T04:57:31.450Z,19.30
2022-07-26T05:00:25.547Z,19.40
2022-07-26T05:03:11.434Z,19.40
2022-07-26T05:05:57.173Z,19.20
2022-07-26T05:08:43.379Z,19.20
2022-07-26T05:11:28.881Z,19.50
2022-07-26T05:14:14.629Z,19.30
2022-07-26T05:17:00.141Z,19.50
2022-07-26T05:20:02.760Z,19.40
2022-07-26T05:22:49.338Z,19.30
2022-07-26T05:25:35.240Z,19.10
2022-07-26T05:28:20.971Z,19.00
2022-07-26T05:31:06.772Z,19.20
2022-07-26T05:33:52.053Z,19.10
2022-07-26T05:36:37.724Z,19.30
2022-07-26T05:39:24.437Z,19.00
2022-07-26T05:42:09.688Z,18.90
2022-07-26T05:44:56.002Z,19.20
2022-07-26T05:47:41.316Z,19.00
2022-07-26T05:50:26.995Z,19.20
2022-07-26T05:53:12.561Z,19.30
2022-07-26T05:55:58.032Z,19.20
2022-07-26T05:58:46.184Z,19.40
2022-07-26T06:01:32.884Z,19.20
2022-07-26T06:04:18.845Z,19.30
2022-07-26T06:07:04.465Z,19.30
2022-07-26T06:09:49.728Z,19.20
2022-07-26T06:12:35.381Z,19.10
2022-07-26T06:15:24.132Z,18.80
2022-07-26T06:18:10.268Z,18.70
2022-07-26T06:20:56.068Z,18.50
2022-07-26T06:23:47.948Z,18.60
2022-07-26T06:26:34.074Z,18.60
2022-07-26T06:29:20.208Z,18.80
2022-07-26T06:32:06.105Z,18.80
2022-07-26T06:34:53.412Z,19.00
2022-07-26T06:37:40.411Z,18.80
2022-07-26T06:40:26.614Z,19.10
2022-07-26T06:43:12.250Z,19.30
2022-07-26T06:45:58.070Z,19.20
2022-07-26T06:48:47.358Z,19.30
2022-07-26T06:51:38.380Z,19.20
2022-07-26T06:54:24.493Z,19.40
2022-07-26T06:57:10.033Z,19.50
2022-07-26T06:59:55.754Z,19.50
2022-07-26T07:02:41.225Z,19.50
2022-07-26T07:05:26.523Z,19.40
2022-07-26T07:08:16.541Z,19.50
2022-07-26T07:11:03.488Z,19.50
2022-07-26T07:13:50.943Z,19.70
2022-07-26T07:16:36.640Z,19.70
2022-07-26T07:19:22.216Z,19.50
2022-07-26T07:22:11.834Z,19.50
2022-07-26T07:24:58.023Z,19.50
2022-07-26T07:27:43.190Z,19.50
2022-07-26T07:30:29.443Z,19.60
2022-07-26T07:33:22.515Z,19.70
2022-07-26T07:36:08.943Z,19.80
2022-07-26T07:38:54.925Z,19.80
2022-07-26T07:41:43.397Z,20.10
2022-07-26T07:44:29.024Z,20.00
2022-07-26T07:47:15.019Z,20.40
2022-07-26T07:50:00.755Z,20.30
2022-07-26T07:52:46.384Z,20.30
2022-07-26T07:55:41.070Z,20.30
2022-07-26T07:58:29.919Z,20.60
2022-07-26T08:01:15.382Z,20.60
2022-07-26T08:04:01.040Z,20.60
2022-07-26T08:06:50.289Z,20.90
2022-07-26T08:09:37.644Z,20.90
2022-07-26T08:12:31.389Z,20.70
2022-07-26T08:15:16.693Z,20.90
2022-07-26T08:18:05.322Z,21.00
2022-07-26T08:20:54.533Z,20.90
2022-07-26T08:23:40.427Z,21.10
2022-07-26T08:26:25.881Z,21.10
2022-07-26T08:29:14.595Z,21.20
2022-07-26T08:32:00.794Z,21.20
2022-07-26T08:34:46.229Z,21.40
2022-07-26T08:37:31.797Z,21.60
2022-07-26T08:40:17.676Z,21.40
2022-07-26T08:43:03.688Z,21.30
2022-07-26T08:45:50.243Z,21.10
2022-07-26T08:48:45.106Z,21.10
2022-07-26T08:51:31.645Z,21.10
2022-07-26T08:54:17.147Z,21.60
2022-07-26T08:57:03.334Z,21.50
2022-07-26T09:00:31.741Z,21.70
2022-07-26T09:03:26.818Z,21.70
2022-07-26T09:06:17.669Z,21.50
2022-07-26T09:09:12.628Z,21.40
2022-07-26T09:12:02.042Z,21.40
2022-07-26T09:14:48.001Z,21.60
2022-07-26T09:17:45.120Z,21.30
2022-07-26T09:20:32.277Z,21.20
2022-07-26T09:23:17.964Z,21.50
2022-07-26T09:26:07.363Z,21.60
2022-07-26T09:29:07.131Z,21.50
2022-07-26T09:31:52.976Z,21.90
2022-07-26T09:34:48.083Z,22.00
2022-07-26T09:37:39.998Z,22.50
2022-07-26T09:40:32.668Z,22.40
2022-07-26T09:43:24.185Z,22.70
2022-07-26T09:46:11.103Z,22.50
2022-07-26T09:49:13.678Z,22.20
2022-07-26T09:51:59.055Z,22.20
2022-07-26T09:54:46.871Z,22.00
2022-07-26T09:57:35.164Z,22.20
2022-07-26T10:00:20.878Z,22.00
2022-07-26T10:03:07.420Z,22.10
2022-07-26T10:05:53.270Z,22.30
2022-07-26T10:08:38.697Z,22.40
2022-07-26T10:11:25.982Z,22.50
2022-07-26T10:14:32.951Z,22.60
2022-07-26T10:17:31.094Z,22.70
2022-07-26T10:20:42.319Z,22.50
2022-07-26T10:23:47.518Z,22.90
2022-07-26T10:26:33.120Z,22.90
2022-07-26T10:29:18.725Z,23.40
2022-07-26T10:32:06.796Z,23.50
2022-07-26T10:34:52.220Z,23.50
2022-07-26T10:37:37.748Z,23.10
2022-07-26T10:40:32.679Z,22.80
2022-07-26T10:46:28.044Z,22.30
2022-07-26T10:49:18.987Z,22.50
2022-07-26T10:52:17.882Z,22.70
2022-07-26T10:55:03.596Z,22.70
2022-07-26T10:57:50.628Z,23.00
2022-07-26T11:00:36.331Z,23.10
2022-07-26T11:03:21.949Z,23.30
2022-07-26T11:06:14.641Z,23.10
2022-07-26T11:09:13.415Z,22.90
2022-07-26T11:12:15.861Z,23.10
2022-07-26T11:15:15.381Z,23.00
2022-07-26T11:18:33.235Z,23.00
2022-07-26T11:21:19.780Z,23.00
2022-07-26T11:24:06.559Z,23.00
2022-07-26T11:26:52.597Z,23.20
2022-07-26T11:29:41.207Z,23.40
2022-07-26T11:32:30.296Z,23.60
2022-07-26T11:35:16.625Z,23.70
2022-07-26T11:38:11.901Z,23.70
2022-07-26T11:40:58.200Z,23.90
2022-07-26T11:43:44.809Z,24.10
2022-07-26T11:46:43.155Z,24.20
2022-07-26T11:52:42.779Z,24.00
2022-07-26T11:55:30.457Z,23.70
2022-07-26T11:58:16.148Z,23.90
2022-07-26T12:01:02.027Z,23.80
2022-07-26T12:03:49.969Z,24.00
2022-07-26T12:06:38.837Z,24.40
2022-07-26T12:09:33.696Z,24.40
2022-07-26T12:12:23.688Z,24.80
2022-07-26T12:15:09.169Z,24.80
2022-07-26T12:18:00.402Z,24.70
2022-07-26T12:21:00.651Z,24.30
2022-07-26T12:23:50.924Z,24.10
2022-07-26T12:26:36.692Z,24.00
2022-07-26T12:29:30.015Z,24.00
2022-07-26T12:32:18.503Z,24.00
2022-07-26T12:35:33.636Z,23.70
2022-07-26T12:38:38.470Z,23.70
2022-07-26T12:41:40.114Z,23.50
2022-07-26T12:44:26.046Z,23.30
2022-07-26T12:47:11.676Z,23.30
2022-07-26T12:49:59.138Z,23.10
2022-07-26T12:52:45.583Z,23.40
2022-07-26T12:55:31.762Z,23.20
2022-07-26T12:58:17.663Z,23.20
2022-07-26T13:01:03.064Z,23.10
2022-07-26T13:03:48.960Z,23.40
2022-07-26T13:06:34.457Z,23.20
2022-07-26T13:09:20.003Z,23.30
2022-07-26T13:12:06.530Z,23.40
2022-07-26T13:14:52.232Z,23.40
2022-07-26T13:17:38.054Z,23.40
2022-07-26T13:20:24.798Z,23.20
2022-07-26T13:23:13.729Z,23.40
2022-07-26T13:26:01.483Z,23.40
2022-07-26T13:28:49.880Z,23.40
2022-07-26T13:31:36.606Z,23.40
2022-07-26T13:34:23.322Z,23.10
2022-07-26T13:37:11.838Z,23.30
2022-07-26T13:39:57.818Z,23.30
2022-07-26T13:42:43.425Z,23.30
2022-07-26T13:45:29.635Z,23.40
2022-07-26T13:48:17.911Z,23.30
2022-07-26T13:51:03.652Z,23.40
2022-07-26T13:53:54.780Z,23.30
2022-07-26T13:56:41.287Z,23.20
2022-07-26T13:59:27.621Z,23.10
2022-07-26T14:02:13.222Z,23.00
2022-07-26T14:04:58.934Z,22.90
2022-07-26T14:07:44.484Z,22.90
2022-07-26T14:10:29.825Z,23.10
2022-07-26T14:13:15.378Z,23.60
2022-07-26T14:16:00.667Z,23.60
2022-07-26T14:18:46.505Z,23.50
2022-07-26T14:21:38.690Z,23.30
2022-07-26T14:24:33.223Z,23.60
2022-07-26T14:27:19.114Z,23.40
2022-07-26T14:30:07.259Z,23.40
2022-07-26T14:32:53.665Z,23.40
2022-07-26T14:35:39.132Z,23.50
2022-07-26T14:38:29.784Z,23.80
2022-07-26T14:41:15.727Z,23.80
2022-07-26T14:44:03.981Z,24.00
2022-07-26T14:46:49.483Z,24.00
2022-07-26T14:49:35.623Z,23.80
2022-07-26T14:58:27.327Z,23.50
2022-07-26T15:01:13.063Z,23.20
2022-07-26T15:03:59.189Z,23.20
2022-07-26T15:06:44.567Z,23.30
2022-07-26T15:09:30.053Z,23.10
2022-07-26T15:12:15.628Z,23.50
2022-07-26T15:15:01.337Z,23.30
2022-07-26T15:17:46.815Z,23.50
2022-07-26T15:20:32.437Z,23.80
2022-07-26T15:23:18.121Z,23.70
2022-07-26T15:26:03.480Z,23.70
2022-07-26T15:28:49.218Z,23.50
2022-07-26T15:31:38.116Z,23.30
2022-07-26T15:34:24.209Z,23.50
2022-07-26T15:37:09.873Z,23.50
2022-07-26T15:39:55.441Z,23.50
2022-07-26T15:42:45.603Z,23.80
2022-07-26T15:45:32.765Z,23.70
2022-07-26T15:48:22.523Z,23.90
2022-07-26T15:51:08.376Z,23.90
2022-07-26T15:53:54.203Z,23.90
2022-07-26T15:56:39.644Z,23.70
2022-07-26T15:59:25.318Z,23.70
2022-07-26T16:02:10.635Z,23.40
2022-07-26T16:04:56.512Z,23.30
2022-07-26T16:07:43.301Z,23.20
2022-07-26T16:10:31.654Z,23.30
2022-07-26T16:13:17.062Z,23.00
2022-07-26T16:16:02.383Z,23.00
2022-07-26T16:18:47.994Z,22.90
2022-07-26T16:21:33.989Z,22.90
2022-07-26T16:24:19.321Z,23.00
2022-07-26T16:27:06.032Z,22.80
2022-07-26T16:30:02.015Z,22.80
2022-07-26T16:32:48.260Z,22.60
2022-07-26T16:35:33.914Z,22.60
2022-07-26T16:38:22.571Z,22.90
2022-07-26T16:41:18.589Z,22.80
2022-07-26T16:44:05.658Z,22.70
2022-07-26T16:46:51.716Z,22.40
2022-07-26T16:49:37.281Z,22.30
2022-07-26T16:52:24.137Z,22.20
2022-07-26T16:55:11.208Z,22.20
2022-07-26T16:58:10.423Z,22.00
2022-07-26T17:00:55.953Z,21.70
2022-07-26T17:03:41.763Z,21.90
2022-07-26T17:06:27.192Z,21.50
2022-07-26T17:09:15.141Z,21.60
2022-07-26T17:12:06.250Z,21.30
2022-07-26T17:14:53.752Z,21.30
2022-07-26T17:17:39.572Z,21.30
2022-07-26T17:20:25.260Z,21.20
2022-07-26T17:23:10.916Z,21.10
2022-07-26T17:25:56.301Z,21.20
2022-07-26T17:28:41.883Z,21.20
2022-07-26T17:31:29.986Z,21.00
2022-07-26T17:34:16.292Z,21.00
2022-07-26T17:37:03.159Z,21.10
2022-07-26T17:39:53.966Z,20.80
2022-07-26T17:42:40.066Z,20.70
2022-07-26T17:45:25.626Z,20.80
2022-07-26T17:48:11.394Z,20.50
2022-07-26T17:50:56.676Z,20.30
2022-07-26T17:53:42.877Z,20.60
2022-07-26T17:56:28.539Z,20.50
2022-07-26T17:59:14.640Z,20.30
2022-07-26T18:02:00.251Z,20.30
2022-07-26T18:04:46.631Z,20.30
2022-07-26T18:07:32.097Z,20.10
2022-07-26T18:10:17.620Z,19.90
2022-07-26T18:13:06.340Z,20.00
2022-07-26T18:15:53.164Z,19.90
2022-07-26T18:18:38.855Z,19.80
2022-07-26T18:21:24.573Z,19.60
2022-07-26T18:24:17.844Z,19.70
2022-07-26T18:27:03.293Z,19.70
2022-07-26T18:29:52.058Z,19.40
2022-07-26T18:32:38.691Z,19.50
2022-07-26T18:35:24.388Z,19.50
2022-07-26T18:38:09.995Z,19.40
2022-07-26T18:40:55.856Z,19.10
2022-07-26T18:43:41.536Z,19.20
2022-07-26T18:46:26.984Z,19.00
2022-07-26T18:49:19.913Z,19.10
2022-07-26T18:52:08.543Z,19.10
2022-07-26T18:54:54.607Z,18.90
2022-07-26T18:57:42.093Z,18.90
2022-07-26T19:00:30.007Z,19.00
2022-07-26T19:03:16.728Z,19.00
2022-07-26T19:06:04.716Z,18.90
2022-07-26T19:08:50.137Z,18.80
2022-07-26T19:11:37.666Z,18.90
2022-07-26T19:14:23.554Z,18.80
2022-07-26T19:17:11.800Z,18.60
2022-07-26T19:20:02.803Z,18.60
2022-07-26T19:22:50.857Z,18.60
2022-07-26T19:25:37.502Z,18.40
2022-07-26T19:28:23.861Z,18.60
2022-07-26T19:31:09.637Z,18.40
2022-07-26T19:33:58.108Z,18.30
2022-07-26T19:36:46.355Z,18.30
2022-07-26T19:39:31.807Z,18.30
2022-07-26T19:42:18.525Z,18.40
2022-07-26T19:45:04.330Z,18.20
2022-07-26T19:47:49.873Z,18.30
2022-07-26T19:50:35.570Z,18.20
2022-07-26T19:53:21.200Z,18.30
2022-07-26T19:56:07.855Z,18.30
2022-07-26T19:58:55.785Z,18.10
2022-07-26T20:01:41.377Z,18.30
2022-07-26T20:04:26.837Z,18.20
2022-07-26T20:07:16.074Z,18.20
2022-07-26T20:10:01.977Z,18.30
2022-07-26T20:12:47.529Z,18.10
2022-07-26T20:15:33.336Z,18.30
2022-07-26T20:18:22.023Z,18.30
2022-07-26T20:21:07.890Z,18.30
2022-07-26T20:23:53.540Z,18.30
2022-07-26T20:26:39.169Z,18.10
2022-07-26T20:29:33.363Z,18.20
2022-07-26T20:32:19.502Z,18.10
2022-07-26T20:35:05.290Z,18.00
2022-07-26T20:37:50.648Z,18.10
2022-07-26T20:40:36.569Z,18.10
2022-07-26T20:43:23.952Z,18.10
2022-07-26T20:46:12.150Z,18.10
2022-07-26T20:48:58.152Z,18.10
2022-07-26T20:51:45.409Z,17.90
2022-07-26T20:54:32.326Z,17.80
2022-07-26T20:57:22.380Z,18.00
2022-07-26T21:00:10.885Z,18.00
2022-07-26T21:02:59.184Z,18.00
2022-07-26T21:05:47.068Z,17.80
2022-07-26T21:08:32.948Z,17.80
2022-07-26T21:11:18.960Z,17.80
2022-07-26T21:14:04.300Z,17.70
2022-07-26T21:16:51.822Z,17.70
2022-07-26T21:19:37.264Z,17.60
2022-07-26T21:22:25.478Z,17.60
2022-07-26T21:25:11.105Z,17.60
2022-07-26T21:27:56.674Z,17.50
2022-07-26T21:30:42.595Z,17.60
2022-07-26T21:33:28.166Z,17.40
2022-07-26T21:36:14.598Z,17.40
2022-07-26T21:39:00.009Z,17.30
2022-07-26T21:41:47.236Z,17.30
2022-07-26T21:44:32.678Z,17.30
2022-07-26T21:47:18.933Z,17.40
2022-07-26T21:50:05.116Z,17.40
2022-07-26T21:52:50.793Z,17.30
2022-07-26T21:55:36.160Z,17.20
2022-07-26T21:58:23.474Z,17.10
2022-07-26T22:01:12.770Z,17.10
2022-07-26T22:03:58.385Z,17.20
2022-07-26T22:06:44.458Z,17.20
2022-07-26T22:09:30.263Z,17.00
2022-07-26T22:12:15.830Z,17.00
2022-07-26T22:15:01.855Z,17.10
2022-07-26T22:17:47.307Z,16.90
2022-07-26T22:20:34.848Z,16.90
2022-07-26T22:23:23.386Z,16.80
2022-07-26T22:26:09.119Z,17.00
2022-07-26T22:28:54.344Z,16.90
2022-07-26T22:31:40.196Z,16.80
2022-07-26T22:34:25.653Z,16.70
2022-07-26T22:37:11.232Z,16.80
2022-07-26T22:39:56.825Z,16.70
2022-07-26T22:42:44.733Z,16.70
2022-07-26T22:45:30.956Z,16.50
2022-07-26T22:48:16.793Z,16.50
2022-07-26T22:51:02.066Z,16.40
2022-07-26T22:53:47.647Z,16.60
2022-07-26T22:56:33.324Z,16.50
2022-07-26T22:59:18.561Z,16.30
2022-07-26T23:02:04.747Z,16.30
2022-07-26T23:04:50.003Z,16.30
2022-07-26T23:07:36.212Z,16.20
2022-07-26T23:10:21.797Z,16.20
2022-07-26T23:13:07.491Z,16.10
2022-07-26T23:15:58.124Z,16.10
2022-07-26T23:18:46.233Z,16.20
2022-07-26T23:21:45.519Z,16.30
2022-07-26T23:24:31.743Z,16.20
2022-07-26T23:27:20.160Z,16.10
2022-07-26T23:30:05.937Z,16.20
2022-07-26T23:33:02.863Z,16.20
2022-07-26T23:35:48.392Z,16.20
2022-07-26T23:38:33.865Z,16.10
2022-07-26T23:41:19.496Z,16.00
2022-07-26T23:44:05.276Z,15.90
2022-07-26T23:46:50.760Z,16.00
2022-07-26T23:49:36.524Z,15.90
2022-07-26T23:52:21.978Z,16.00
2022-07-26T23:55:08.163Z,16.00
2022-07-26T23:57:54.083Z,15.90
